sensor_id;sensor_type;location;lat;lon;timestamp;pressure;altitude;pressure_sealevel;temperature;humidity
76973;BME280;65907;53.640;10.050;2023-06-19T00:00:14;100498.72;;;27.54;33.09
76973;BME280;65907;53.640;10.050;2023-06-19T00:02:40;100501.03;;;27.49;33.25
76973;BME280;65907;53.640;10.050;2023-06-19T00:05:08;100496.41;;;27.51;33.10
76973;BME280;65907;53.640;10.050;2023-06-19T00:07:36;100499.06;;;27.51;33.26
76973;BME280;65907;53.640;10.050;2023-06-19T00:10:02;100500.72;;;27.52;33.47
76973;BME280;65907;53.640;10.050;2023-06-19T00:12:29;100491.47;;;27.48;33.27
76973;BME280;65907;53.640;10.050;2023-06-19T00:14:54;100485.94;;;27.34;33.61
76973;BME280;65907;53.640;10.050;2023-06-19T00:17:20;100492.22;;;27.33;33.53
76973;BME280;65907;53.640;10.050;2023-06-19T00:19:45;100491.63;;;27.46;33.09
76973;BME280;65907;53.640;10.050;2023-06-19T00:22:11;100487.34;;;27.45;33.38
76973;BME280;65907;53.640;10.050;2023-06-19T00:24:37;100483.56;;;27.48;33.42
76973;BME280;65907;53.640;10.050;2023-06-19T00:27:02;100484.88;;;27.44;33.44
76973;BME280;65907;53.640;10.050;2023-06-19T00:29:31;100484.25;;;27.42;33.33
76973;BME280;65907;53.640;10.050;2023-06-19T00:31:56;100479.28;;;27.47;32.99
76973;BME280;65907;53.640;10.050;2023-06-19T00:34:22;100478.28;;;27.48;33.11
76973;BME280;65907;53.640;10.050;2023-06-19T00:36:50;100470.47;;;27.55;33.07
76973;BME280;65907;53.640;10.050;2023-06-19T00:39:21;100472.66;;;27.51;33.00
76973;BME280;65907;53.640;10.050;2023-06-19T00:41:46;100468.22;;;27.43;33.39
76973;BME280;65907;53.640;10.050;2023-06-19T00:44:13;100469.75;;;27.38;33.30
76973;BME280;65907;53.640;10.050;2023-06-19T00:46:39;100468.59;;;27.40;33.33
76973;BME280;65907;53.640;10.050;2023-06-19T00:49:05;100464.94;;;27.41;33.53
76973;BME280;65907;53.640;10.050;2023-06-19T00:51:30;100463.84;;;27.36;33.35
76973;BME280;65907;53.640;10.050;2023-06-19T00:54:00;100451.75;;;27.41;33.28
76973;BME280;65907;53.640;10.050;2023-06-19T00:56:26;100453.75;;;27.39;33.33
76973;BME280;65907;53.640;10.050;2023-06-19T00:58:52;100451.28;;;27.38;33.32
76973;BME280;65907;53.640;10.050;2023-06-19T01:01:17;100447.47;;;27.40;33.35
76973;BME280;65907;53.640;10.050;2023-06-19T01:03:44;100448.91;;;27.43;33.36
76973;BME280;65907;53.640;10.050;2023-06-19T01:06:12;100441.47;;;27.46;33.10
76973;BME280;65907;53.640;10.050;2023-06-19T01:11:14;100438.03;;;27.46;33.42
76973;BME280;65907;53.640;10.050;2023-06-19T01:13:58;100436.53;;;27.43;33.29
76973;BME280;65907;53.640;10.050;2023-06-19T01:16:24;100440.06;;;27.36;33.42
76973;BME280;65907;53.640;10.050;2023-06-19T01:18:50;100435.19;;;27.47;32.95
76973;BME280;65907;53.640;10.050;2023-06-19T01:21:16;100449.50;;;27.30;33.63
76973;BME280;65907;53.640;10.050;2023-06-19T01:23:42;100447.47;;;27.40;33.14
76973;BME280;65907;53.640;10.050;2023-06-19T01:26:07;100437.91;;;27.39;33.20
76973;BME280;65907;53.640;10.050;2023-06-19T01:28:33;100431.63;;;27.40;33.34
76973;BME280;65907;53.640;10.050;2023-06-19T01:31:00;100430.41;;;27.51;32.90
76973;BME280;65907;53.640;10.050;2023-06-19T01:33:28;100429.09;;;27.47;33.23
76973;BME280;65907;53.640;10.050;2023-06-19T01:35:55;100424.25;;;27.51;33.02
76973;BME280;65907;53.640;10.050;2023-06-19T01:38:21;100417.31;;;27.58;32.97
76973;BME280;65907;53.640;10.050;2023-06-19T01:40:48;100418.19;;;27.50;33.27
76973;BME280;65907;53.640;10.050;2023-06-19T01:43:14;100421.34;;;27.45;33.33
76973;BME280;65907;53.640;10.050;2023-06-19T01:45:40;100425.75;;;27.53;33.13
76973;BME280;65907;53.640;10.050;2023-06-19T01:48:06;100427.97;;;27.41;33.35
76973;BME280;65907;53.640;10.050;2023-06-19T01:50:31;100426.50;;;27.39;33.53
76973;BME280;65907;53.640;10.050;2023-06-19T01:52:56;100424.88;;;27.38;33.56
76973;BME280;65907;53.640;10.050;2023-06-19T01:55:21;100424.44;;;27.34;33.56
76973;BME280;65907;53.640;10.050;2023-06-19T01:57:47;100428.16;;;27.40;33.50
76973;BME280;65907;53.640;10.050;2023-06-19T02:00:12;100431.00;;;27.38;33.71
76973;BME280;65907;53.640;10.050;2023-06-19T02:02:37;100436.91;;;27.40;33.73
76973;BME280;65907;53.640;10.050;2023-06-19T02:05:03;100441.47;;;27.46;33.54
76973;BME280;65907;53.640;10.050;2023-06-19T02:07:28;100445.63;;;27.41;33.58
76973;BME280;65907;53.640;10.050;2023-06-19T02:09:53;100433.44;;;27.40;33.90
76973;BME280;65907;53.640;10.050;2023-06-19T02:12:19;100425.41;;;27.33;33.78
76973;BME280;65907;53.640;10.050;2023-06-19T02:14:44;100423.88;;;27.39;33.63
76973;BME280;65907;53.640;10.050;2023-06-19T02:17:09;100423.50;;;27.42;33.72
76973;BME280;65907;53.640;10.050;2023-06-19T02:19:37;100414.66;;;27.34;33.76
76973;BME280;65907;53.640;10.050;2023-06-19T02:22:02;100399.56;;;27.28;33.67
76973;BME280;65907;53.640;10.050;2023-06-19T02:24:27;100404.47;;;27.31;33.70
76973;BME280;65907;53.640;10.050;2023-06-19T02:26:52;100395.66;;;27.39;33.68
76973;BME280;65907;53.640;10.050;2023-06-19T02:29:20;100398.84;;;27.34;33.65
76973;BME280;65907;53.640;10.050;2023-06-19T02:31:46;100392.44;;;27.52;33.42
76973;BME280;65907;53.640;10.050;2023-06-19T02:34:11;100380.91;;;27.45;33.55
76973;BME280;65907;53.640;10.050;2023-06-19T02:36:36;100385.00;;;27.32;33.86
76973;BME280;65907;53.640;10.050;2023-06-19T02:39:03;100391.34;;;27.23;34.14
76973;BME280;65907;53.640;10.050;2023-06-19T02:41:28;100393.81;;;27.40;33.51
76973;BME280;65907;53.640;10.050;2023-06-19T02:43:54;100390.19;;;27.41;33.53
76973;BME280;65907;53.640;10.050;2023-06-19T02:46:19;100387.63;;;27.32;33.77
76973;BME280;65907;53.640;10.050;2023-06-19T02:48:44;100384.16;;;27.32;33.71
76973;BME280;65907;53.640;10.050;2023-06-19T02:51:09;100377.53;;;27.36;33.74
76973;BME280;65907;53.640;10.050;2023-06-19T02:53:34;100384.81;;;27.34;33.50
76973;BME280;65907;53.640;10.050;2023-06-19T02:56:02;100379.56;;;27.34;33.87
76973;BME280;65907;53.640;10.050;2023-06-19T02:58:32;100383.00;;;27.34;33.65
76973;BME280;65907;53.640;10.050;2023-06-19T03:00:57;100378.63;;;27.42;33.61
76973;BME280;65907;53.640;10.050;2023-06-19T03:03:23;100381.19;;;27.35;33.80
76973;BME280;65907;53.640;10.050;2023-06-19T03:05:48;100377.63;;;27.43;33.68
76973;BME280;65907;53.640;10.050;2023-06-19T03:08:13;100375.25;;;27.33;33.97
76973;BME280;65907;53.640;10.050;2023-06-19T03:10:41;100378.34;;;27.37;33.57
76973;BME280;65907;53.640;10.050;2023-06-19T03:13:06;100378.44;;;27.28;33.77
76973;BME280;65907;53.640;10.050;2023-06-19T03:15:31;100383.34;;;27.31;33.83
76973;BME280;65907;53.640;10.050;2023-06-19T03:17:59;100377.19;;;27.39;33.59
76973;BME280;65907;53.640;10.050;2023-06-19T03:20:28;100372.97;;;27.30;33.73
76973;BME280;65907;53.640;10.050;2023-06-19T03:22:53;100379.81;;;27.39;33.70
76973;BME280;65907;53.640;10.050;2023-06-19T03:25:18;100380.63;;;27.40;33.56
76973;BME280;65907;53.640;10.050;2023-06-19T03:27:44;100380.06;;;27.29;33.72
76973;BME280;65907;53.640;10.050;2023-06-19T03:30:12;100385.78;;;27.33;33.83
76973;BME280;65907;53.640;10.050;2023-06-19T03:32:37;100387.75;;;27.39;33.64
76973;BME280;65907;53.640;10.050;2023-06-19T03:35:03;100390.66;;;27.44;33.68
76973;BME280;65907;53.640;10.050;2023-06-19T03:37:30;100395.66;;;27.39;33.61
76973;BME280;65907;53.640;10.050;2023-06-19T03:39:57;100398.03;;;27.34;33.66
76973;BME280;65907;53.640;10.050;2023-06-19T03:42:23;100398.44;;;27.23;33.95
76973;BME280;65907;53.640;10.050;2023-06-19T03:44:51;100395.63;;;27.24;33.86
76973;BME280;65907;53.640;10.050;2023-06-19T03:47:16;100405.13;;;27.33;33.67
76973;BME280;65907;53.640;10.050;2023-06-19T03:49:41;100403.63;;;27.31;33.89
76973;BME280;65907;53.640;10.050;2023-06-19T03:52:07;100398.19;;;27.32;33.70
76973;BME280;65907;53.640;10.050;2023-06-19T03:54:32;100399.72;;;27.27;34.06
76973;BME280;65907;53.640;10.050;2023-06-19T03:57:00;100396.97;;;27.20;33.90
76973;BME280;65907;53.640;10.050;2023-06-19T03:59:25;100403.97;;;27.13;34.16
76973;BME280;65907;53.640;10.050;2023-06-19T04:01:50;100402.91;;;27.22;34.00
76973;BME280;65907;53.640;10.050;2023-06-19T04:04:16;100402.31;;;27.12;34.29
76973;BME280;65907;53.640;10.050;2023-06-19T04:06:41;100401.91;;;27.23;33.83
76973;BME280;65907;53.640;10.050;2023-06-19T04:09:09;100410.34;;;27.18;34.00
76973;BME280;65907;53.640;10.050;2023-06-19T04:11:34;100404.06;;;27.19;34.07
76973;BME280;65907;53.640;10.050;2023-06-19T04:13:59;100404.31;;;27.10;34.07
76973;BME280;65907;53.640;10.050;2023-06-19T04:16:24;100408.19;;;27.22;33.96
76973;BME280;65907;53.640;10.050;2023-06-19T04:18:49;100398.69;;;27.13;34.20
76973;BME280;65907;53.640;10.050;2023-06-19T04:21:17;100400.59;;;27.19;34.14
76973;BME280;65907;53.640;10.050;2023-06-19T04:23:42;100406.66;;;27.04;34.27
76973;BME280;65907;53.640;10.050;2023-06-19T04:26:07;100410.72;;;27.15;34.10
76973;BME280;65907;53.640;10.050;2023-06-19T04:28:33;100415.41;;;27.28;33.94
76973;BME280;65907;53.640;10.050;2023-06-19T04:30:58;100423.84;;;27.24;34.24
76973;BME280;65907;53.640;10.050;2023-06-19T04:33:29;100421.03;;;27.25;34.11
76973;BME280;65907;53.640;10.050;2023-06-19T04:35:55;100420.03;;;27.26;34.00
76973;BME280;65907;53.640;10.050;2023-06-19T04:38:20;100409.84;;;27.23;34.21
76973;BME280;65907;53.640;10.050;2023-06-19T04:40:48;100397.19;;;27.33;33.91
76973;BME280;65907;53.640;10.050;2023-06-19T04:43:14;100404.56;;;27.00;34.51
76973;BME280;65907;53.640;10.050;2023-06-19T04:45:39;100405.69;;;27.05;34.47
76973;BME280;65907;53.640;10.050;2023-06-19T04:48:04;100403.97;;;26.58;35.45
76973;BME280;65907;53.640;10.050;2023-06-19T04:50:29;100413.53;;;26.90;35.38
76973;BME280;65907;53.640;10.050;2023-06-19T04:52:57;100407.78;;;26.87;35.11
76973;BME280;65907;53.640;10.050;2023-06-19T04:55:22;100423.25;;;26.90;35.49
76973;BME280;65907;53.640;10.050;2023-06-19T04:57:50;100429.56;;;26.81;35.45
76973;BME280;65907;53.640;10.050;2023-06-19T05:00:16;100442.44;;;27.07;34.87
76973;BME280;65907;53.640;10.050;2023-06-19T05:02:44;100438.66;;;27.25;34.71
76973;BME280;65907;53.640;10.050;2023-06-19T05:05:10;100443.19;;;27.16;34.73
76973;BME280;65907;53.640;10.050;2023-06-19T05:07:36;100439.09;;;27.13;34.88
76973;BME280;65907;53.640;10.050;2023-06-19T05:10:01;100438.59;;;26.86;35.73
76973;BME280;65907;53.640;10.050;2023-06-19T05:12:27;100426.13;;;27.03;35.47
76973;BME280;65907;53.640;10.050;2023-06-19T05:14:52;100427.44;;;27.08;35.25
76973;BME280;65907;53.640;10.050;2023-06-19T05:17:17;100426.56;;;27.15;35.62
76973;BME280;65907;53.640;10.050;2023-06-19T05:19:43;100424.91;;;26.91;36.14
76973;BME280;65907;53.640;10.050;2023-06-19T05:22:08;100433.59;;;27.00;35.80
76973;BME280;65907;53.640;10.050;2023-06-19T05:24:33;100431.03;;;27.30;35.27
76973;BME280;65907;53.640;10.050;2023-06-19T05:26:58;100430.03;;;27.31;35.32
76973;BME280;65907;53.640;10.050;2023-06-19T05:29:26;100428.16;;;27.40;34.99
76973;BME280;65907;53.640;10.050;2023-06-19T05:31:54;100427.47;;;27.46;34.97
76973;BME280;65907;53.640;10.050;2023-06-19T05:34:19;100429.78;;;27.41;34.93
76973;BME280;65907;53.640;10.050;2023-06-19T05:36:46;100435.06;;;27.41;34.97
76973;BME280;65907;53.640;10.050;2023-06-19T05:39:12;100440.19;;;27.42;35.03
76973;BME280;65907;53.640;10.050;2023-06-19T05:41:37;100435.06;;;27.41;35.11
76973;BME280;65907;53.640;10.050;2023-06-19T05:44:02;100434.31;;;27.32;35.11
76973;BME280;65907;53.640;10.050;2023-06-19T05:46:28;100446.06;;;27.29;34.97
76973;BME280;65907;53.640;10.050;2023-06-19T05:48:53;100438.44;;;27.34;34.95
76973;BME280;65907;53.640;10.050;2023-06-19T05:51:19;100437.78;;;27.09;35.18
76973;BME280;65907;53.640;10.050;2023-06-19T05:53:45;100440.09;;;27.12;35.21
76973;BME280;65907;53.640;10.050;2023-06-19T05:56:11;100441.38;;;27.16;34.84
76973;BME280;65907;53.640;10.050;2023-06-19T05:58:39;100450.81;;;27.11;35.11
76973;BME280;65907;53.640;10.050;2023-06-19T06:01:07;100454.09;;;27.13;35.10
76973;BME280;65907;53.640;10.050;2023-06-19T06:03:32;100464.78;;;27.19;35.10
76973;BME280;65907;53.640;10.050;2023-06-19T06:05:58;100461.53;;;27.09;35.45
76973;BME280;65907;53.640;10.050;2023-06-19T06:08:28;100470.28;;;27.10;35.29
76973;BME280;65907;53.640;10.050;2023-06-19T06:10:53;100461.38;;;27.11;35.19
76973;BME280;65907;53.640;10.050;2023-06-19T06:13:18;100468.94;;;27.14;35.23
76973;BME280;65907;53.640;10.050;2023-06-19T06:15:44;100466.00;;;27.09;35.36
76973;BME280;65907;53.640;10.050;2023-06-19T06:18:11;100473.09;;;27.08;35.33
76973;BME280;65907;53.640;10.050;2023-06-19T06:20:37;100471.78;;;27.12;35.41
76973;BME280;65907;53.640;10.050;2023-06-19T06:23:02;100471.56;;;27.14;35.28
76973;BME280;65907;53.640;10.050;2023-06-19T06:25:28;100485.13;;;27.11;35.61
76973;BME280;65907;53.640;10.050;2023-06-19T06:27:53;100484.91;;;27.20;35.13
76973;BME280;65907;53.640;10.050;2023-06-19T06:30:18;100477.66;;;27.38;34.96
76973;BME280;65907;53.640;10.050;2023-06-19T06:32:44;100480.59;;;27.43;34.99
76973;BME280;65907;53.640;10.050;2023-06-19T06:35:09;100480.34;;;27.14;35.54
76973;BME280;65907;53.640;10.050;2023-06-19T06:37:34;100491.88;;;27.13;35.75
76973;BME280;65907;53.640;10.050;2023-06-19T06:40:02;100489.69;;;27.17;35.48
76973;BME280;65907;53.640;10.050;2023-06-19T06:42:30;100492.22;;;27.33;35.12
76973;BME280;65907;53.640;10.050;2023-06-19T06:44:55;100493.94;;;27.26;35.08
76973;BME280;65907;53.640;10.050;2023-06-19T06:47:20;100499.91;;;27.43;35.29
76973;BME280;65907;53.640;10.050;2023-06-19T06:49:47;100496.00;;;27.39;35.09
76973;BME280;65907;53.640;10.050;2023-06-19T06:52:13;100490.47;;;27.26;35.68
76973;BME280;65907;53.640;10.050;2023-06-19T06:54:40;100493.22;;;27.32;35.63
76973;BME280;65907;53.640;10.050;2023-06-19T06:57:06;100503.44;;;27.36;35.33
76973;BME280;65907;53.640;10.050;2023-06-19T06:59:31;100503.84;;;27.47;34.93
76973;BME280;65907;53.640;10.050;2023-06-19T07:01:56;100508.47;;;27.45;34.93
76973;BME280;65907;53.640;10.050;2023-06-19T07:04:22;100510.94;;;27.47;34.88
76973;BME280;65907;53.640;10.050;2023-06-19T07:06:47;100508.06;;;27.33;35.31
76973;BME280;65907;53.640;10.050;2023-06-19T07:09:13;100511.06;;;27.30;35.50
76973;BME280;65907;53.640;10.050;2023-06-19T07:11:40;100517.56;;;27.43;35.24
76973;BME280;65907;53.640;10.050;2023-06-19T07:14:07;100513.38;;;27.57;35.03
76973;BME280;65907;53.640;10.050;2023-06-19T07:16:32;100515.66;;;27.60;35.07
76973;BME280;65907;53.640;10.050;2023-06-19T07:18:57;100510.28;;;27.53;35.58
76973;BME280;65907;53.640;10.050;2023-06-19T07:21:25;100510.94;;;27.47;35.56
76973;BME280;65907;53.640;10.050;2023-06-19T07:23:54;100520.13;;;27.59;35.53
76973;BME280;65907;53.640;10.050;2023-06-19T07:26:20;100514.84;;;27.59;35.61
76973;BME280;65907;53.640;10.050;2023-06-19T07:28:45;100511.94;;;27.69;35.27
76973;BME280;65907;53.640;10.050;2023-06-19T07:31:10;100515.19;;;27.56;35.64
76973;BME280;65907;53.640;10.050;2023-06-19T07:33:35;100519.13;;;27.60;35.51
76973;BME280;65907;53.640;10.050;2023-06-19T07:36:03;100519.22;;;27.67;35.20
76973;BME280;65907;53.640;10.050;2023-06-19T07:38:29;100519.06;;;27.69;35.41
76973;BME280;65907;53.640;10.050;2023-06-19T07:40:56;100514.03;;;27.51;35.70
76973;BME280;65907;53.640;10.050;2023-06-19T07:43:22;100515.75;;;27.67;35.27
76973;BME280;65907;53.640;10.050;2023-06-19T07:45:47;100518.72;;;27.72;35.48
76973;BME280;65907;53.640;10.050;2023-06-19T07:48:12;100518.22;;;27.91;34.96
76973;BME280;65907;53.640;10.050;2023-06-19T07:50:38;100518.75;;;28.02;34.92
76973;BME280;65907;53.640;10.050;2023-06-19T07:53:03;100520.66;;;28.08;34.71
76973;BME280;65907;53.640;10.050;2023-06-19T07:55:30;100521.38;;;27.87;35.34
76973;BME280;65907;53.640;10.050;2023-06-19T07:57:59;100525.50;;;28.04;34.85
76973;BME280;65907;53.640;10.050;2023-06-19T08:00:25;100521.41;;;28.02;35.12
76973;BME280;65907;53.640;10.050;2023-06-19T08:02:55;100526.44;;;28.27;34.54
76973;BME280;65907;53.640;10.050;2023-06-19T08:05:23;100522.59;;;28.14;34.77
76973;BME280;65907;53.640;10.050;2023-06-19T08:07:49;100511.09;;;28.07;35.05
76973;BME280;65907;53.640;10.050;2023-06-19T08:10:14;100522.31;;;28.09;34.99
76973;BME280;65907;53.640;10.050;2023-06-19T08:12:40;100523.59;;;28.13;35.13
76973;BME280;65907;53.640;10.050;2023-06-19T08:15:09;100523.44;;;28.30;34.76
76973;BME280;65907;53.640;10.050;2023-06-19T08:17:36;100523.06;;;28.33;34.74
76973;BME280;65907;53.640;10.050;2023-06-19T08:20:02;100534.66;;;28.17;34.93
76973;BME280;65907;53.640;10.050;2023-06-19T08:22:30;100528.09;;;28.43;34.42
76973;BME280;65907;53.640;10.050;2023-06-19T08:24:55;100530.09;;;28.41;34.68
76973;BME280;65907;53.640;10.050;2023-06-19T08:27:21;100531.19;;;28.46;34.54
76973;BME280;65907;53.640;10.050;2023-06-19T08:29:48;100525.44;;;28.43;34.59
76973;BME280;65907;53.640;10.050;2023-06-19T08:32:13;100525.72;;;28.48;34.66
76973;BME280;65907;53.640;10.050;2023-06-19T08:34:39;100519.06;;;28.52;34.36
76973;BME280;65907;53.640;10.050;2023-06-19T08:37:05;100530.94;;;28.41;34.62
76973;BME280;65907;53.640;10.050;2023-06-19T08:39:31;100520.00;;;28.44;34.71
76973;BME280;65907;53.640;10.050;2023-06-19T08:41:57;100518.88;;;28.39;35.02
76973;BME280;65907;53.640;10.050;2023-06-19T08:44:22;100529.56;;;28.45;34.87
76973;BME280;65907;53.640;10.050;2023-06-19T08:46:47;100528.81;;;28.37;35.06
76973;BME280;65907;53.640;10.050;2023-06-19T08:49:13;100541.31;;;28.43;34.88
76973;BME280;65907;53.640;10.050;2023-06-19T08:51:38;100532.28;;;28.37;34.88
76973;BME280;65907;53.640;10.050;2023-06-19T08:54:05;100532.31;;;28.52;34.81
76973;BME280;65907;53.640;10.050;2023-06-19T08:56:30;100530.47;;;28.53;34.76
76973;BME280;65907;53.640;10.050;2023-06-19T08:59:07;100526.44;;;28.57;34.96
76973;BME280;65907;53.640;10.050;2023-06-19T09:01:32;100533.66;;;28.48;35.02
76973;BME280;65907;53.640;10.050;2023-06-19T09:03:57;100537.97;;;28.49;34.97
76973;BME280;65907;53.640;10.050;2023-06-19T09:06:22;100539.03;;;28.40;35.24
76973;BME280;65907;53.640;10.050;2023-06-19T09:08:57;100533.38;;;28.58;34.96
76973;BME280;65907;53.640;10.050;2023-06-19T09:11:22;100534.84;;;28.60;35.03
76973;BME280;65907;53.640;10.050;2023-06-19T09:13:55;100538.75;;;28.50;35.13
76973;BME280;65907;53.640;10.050;2023-06-19T09:16:20;100538.88;;;28.41;35.18
76973;BME280;65907;53.640;10.050;2023-06-19T09:18:46;100534.94;;;28.52;35.22
76973;BME280;65907;53.640;10.050;2023-06-19T09:21:19;100531.84;;;28.48;35.03
76973;BME280;65907;53.640;10.050;2023-06-19T09:23:45;100536.28;;;28.33;35.65
76973;BME280;65907;53.640;10.050;2023-06-19T09:26:10;100531.31;;;28.38;35.46
76973;BME280;65907;53.640;10.050;2023-06-19T09:28:39;100533.47;;;28.50;35.31
76973;BME280;65907;53.640;10.050;2023-06-19T09:31:05;100542.59;;;28.32;35.66
76973;BME280;65907;53.640;10.050;2023-06-19T09:33:31;100542.50;;;28.40;35.51
76973;BME280;65907;53.640;10.050;2023-06-19T09:35:56;100543.84;;;28.36;35.67
76973;BME280;65907;53.640;10.050;2023-06-19T09:38:23;100541.78;;;28.46;35.25
76973;BME280;65907;53.640;10.050;2023-06-19T09:40:49;100536.28;;;28.48;35.49
76973;BME280;65907;53.640;10.050;2023-06-19T09:43:18;100543.50;;;28.54;35.32
76973;BME280;65907;53.640;10.050;2023-06-19T09:45:44;100540.66;;;28.56;35.27
76973;BME280;65907;53.640;10.050;2023-06-19T09:48:12;100547.06;;;28.31;35.65
76973;BME280;65907;53.640;10.050;2023-06-19T09:50:39;100548.59;;;28.56;35.35
76973;BME280;65907;53.640;10.050;2023-06-19T09:53:06;100556.75;;;28.39;35.60
76973;BME280;65907;53.640;10.050;2023-06-19T09:55:34;100560.66;;;28.43;35.58
76973;BME280;65907;53.640;10.050;2023-06-19T09:58:01;100556.06;;;28.37;35.66
76973;BME280;65907;53.640;10.050;2023-06-19T10:00:27;100561.19;;;28.24;35.89
76973;BME280;65907;53.640;10.050;2023-06-19T10:02:56;100574.31;;;28.32;35.90
76973;BME280;65907;53.640;10.050;2023-06-19T10:05:29;100574.22;;;28.25;35.99
76973;BME280;65907;53.640;10.050;2023-06-19T10:07:55;100573.94;;;28.35;35.79
76973;BME280;65907;53.640;10.050;2023-06-19T10:10:26;100572.25;;;28.27;35.97
76973;BME280;65907;53.640;10.050;2023-06-19T10:12:54;100571.88;;;28.07;36.51
76973;BME280;65907;53.640;10.050;2023-06-19T10:15:21;100577.97;;;28.31;35.79
76973;BME280;65907;53.640;10.050;2023-06-19T10:17:47;100577.41;;;28.21;36.01
76973;BME280;65907;53.640;10.050;2023-06-19T10:20:46;100583.63;;;28.28;35.92
76973;BME280;65907;53.640;10.050;2023-06-19T10:23:09;100582.50;;;28.22;36.19
76973;BME280;65907;53.640;10.050;2023-06-19T10:25:39;100580.59;;;28.16;36.29
76973;BME280;65907;53.640;10.050;2023-06-19T10:28:15;100578.81;;;28.31;35.93
76973;BME280;65907;53.640;10.050;2023-06-19T10:30:40;100577.06;;;28.39;35.88
76973;BME280;65907;53.640;10.050;2023-06-19T10:33:06;100573.94;;;28.35;35.98
76973;BME280;65907;53.640;10.050;2023-06-19T10:35:40;100584.97;;;28.24;36.21
76973;BME280;65907;53.640;10.050;2023-06-19T10:38:06;100584.19;;;28.38;36.19
76973;BME280;65907;53.640;10.050;2023-06-19T10:40:31;100576.81;;;28.10;37.61
76973;BME280;65907;53.640;10.050;2023-06-19T10:42:56;100582.47;;;27.37;40.61
76973;BME280;65907;53.640;10.050;2023-06-19T10:45:24;100582.41;;;27.22;40.54
76973;BME280;65907;53.640;10.050;2023-06-19T10:47:53;100581.84;;;27.27;41.36
76973;BME280;65907;53.640;10.050;2023-06-19T10:50:19;100574.41;;;27.62;40.21
76973;BME280;65907;53.640;10.050;2023-06-19T10:52:44;100583.50;;;27.59;41.08
76973;BME280;65907;53.640;10.050;2023-06-19T10:55:11;100591.41;;;26.96;42.00
76973;BME280;65907;53.640;10.050;2023-06-19T10:57:36;100588.03;;;27.42;41.28
76973;BME280;65907;53.640;10.050;2023-06-19T11:00:04;100585.97;;;27.29;41.32
76973;BME280;65907;53.640;10.050;2023-06-19T11:02:36;100583.56;;;27.19;41.72
76973;BME280;65907;53.640;10.050;2023-06-19T11:05:04;100589.81;;;26.87;42.09
76973;BME280;65907;53.640;10.050;2023-06-19T11:07:30;100596.03;;;26.94;42.21
76973;BME280;65907;53.640;10.050;2023-06-19T11:09:56;100583.13;;;27.08;42.01
76973;BME280;65907;53.640;10.050;2023-06-19T11:12:24;100582.34;;;27.30;41.58
76973;BME280;65907;53.640;10.050;2023-06-19T11:14:49;100585.22;;;27.52;41.16
76973;BME280;65907;53.640;10.050;2023-06-19T11:17:15;100584.97;;;27.30;41.70
76973;BME280;65907;53.640;10.050;2023-06-19T11:19:40;100595.47;;;27.07;41.58
76973;BME280;65907;53.640;10.050;2023-06-19T11:22:08;100586.69;;;27.23;41.14
76973;BME280;65907;53.640;10.050;2023-06-19T11:24:34;100578.78;;;27.46;41.01
76973;BME280;65907;53.640;10.050;2023-06-19T11:26:59;100578.28;;;27.51;40.81
76973;BME280;65907;53.640;10.050;2023-06-19T11:29:25;100586.28;;;27.34;41.05
76973;BME280;65907;53.640;10.050;2023-06-19T11:31:54;100593.94;;;26.89;41.49
76973;BME280;65907;53.640;10.050;2023-06-19T11:34:32;100597.97;;;27.09;40.96
76973;BME280;65907;53.640;10.050;2023-06-19T11:36:58;100591.69;;;27.41;40.69
76973;BME280;65907;53.640;10.050;2023-06-19T11:39:23;100587.97;;;27.82;40.42
76973;BME280;65907;53.640;10.050;2023-06-19T11:41:49;100591.94;;;27.55;40.96
76973;BME280;65907;53.640;10.050;2023-06-19T11:44:15;100593.19;;;27.36;41.20
76973;BME280;65907;53.640;10.050;2023-06-19T11:46:40;100600.47;;;27.33;41.16
76973;BME280;65907;53.640;10.050;2023-06-19T11:49:11;100598.03;;;27.24;41.17
76973;BME280;65907;53.640;10.050;2023-06-19T11:51:37;100610.41;;;26.91;42.14
76973;BME280;65907;53.640;10.050;2023-06-19T11:54:05;100603.94;;;26.94;41.91
76973;BME280;65907;53.640;10.050;2023-06-19T11:56:31;100597.78;;;27.42;40.80
76973;BME280;65907;53.640;10.050;2023-06-19T11:58:56;100602.06;;;27.43;41.14
76973;BME280;65907;53.640;10.050;2023-06-19T12:01:21;100604.09;;;27.32;41.35
76973;BME280;65907;53.640;10.050;2023-06-19T12:03:47;100602.19;;;27.49;41.45
76973;BME280;65907;53.640;10.050;2023-06-19T12:06:12;100597.31;;;27.70;40.63
76973;BME280;65907;53.640;10.050;2023-06-19T12:08:37;100599.97;;;27.38;41.53
76973;BME280;65907;53.640;10.050;2023-06-19T12:11:03;100607.63;;;27.56;41.64
76973;BME280;65907;53.640;10.050;2023-06-19T12:13:30;100611.72;;;27.82;40.81
76973;BME280;65907;53.640;10.050;2023-06-19T12:15:55;100612.25;;;27.54;41.54
76973;BME280;65907;53.640;10.050;2023-06-19T12:18:20;100614.75;;;27.47;41.35
76973;BME280;65907;53.640;10.050;2023-06-19T12:20:45;100617.44;;;27.39;41.94
76973;BME280;65907;53.640;10.050;2023-06-19T12:23:11;100614.69;;;27.64;41.33
76973;BME280;65907;53.640;10.050;2023-06-19T12:25:36;100619.13;;;27.00;42.39
76973;BME280;65907;53.640;10.050;2023-06-19T12:28:01;100621.09;;;27.30;41.53
76973;BME280;65907;53.640;10.050;2023-06-19T12:30:30;100616.38;;;27.48;41.21
76973;BME280;65907;53.640;10.050;2023-06-19T12:32:55;100619.13;;;27.63;40.58
76973;BME280;65907;53.640;10.050;2023-06-19T12:35:21;100605.97;;;27.79;40.43
76973;BME280;65907;53.640;10.050;2023-06-19T12:37:48;100613.81;;;27.72;40.30